Главная страница
METAR-TAF:

METAR-TAF

Аэропорты :

Веллингтон, Новая Зеландия

широта: 41-20S, долгота: 174-48E, высота над уровнем моря: 12 м

Текущие метеонаблюдения

Эта сводка был подготовлена 22 минут назад, в 07:30 UTC
Ветер 4 Узел от северо-западный
Температура 18°C
Влажность 77%
Давление 1024 hPa
Видимость 10 км и более

METAR: NZWN 220730Z AUTO 31004KT 9999 NCD 18/14 Q1024 NOSIG

Время: 20:52 (07:52 UTC)

Прогноз

Эта сводка был подготовлена 2 часа и 0 минут назад, в 05:52 UTC
Прогноз действительный с 22-го 06 UTC до 23-го 06 UTC
Ветер 10 Узел от южный-юго-западный
Видимость 10 км и более
небольшая облачность на высоте 2500 фута
изменения
С 22-го 06 UTC до 22-го 08 UTC
Ветер 5 Узел от северо-северо-восточный
изменения
С 23-го 00 UTC до 23-го 02 UTC
Ветер 10 Узел от южный

TAF: NZWN 220552Z 2206/2306 20010KT 9999 FEW025 BECMG 2206/2208 02005KT BECMG 2300/2302 18010KT

Метеонаблюдения и прогнозы для более 4000 аэропортов (сводки METAR и TAF).

Имеющиеся станции представлены на карте желтыми и красными точками.

Чтобы увидеть название станции, наведите на нее мышь.

Затем щелкните, чтобы увидеть метеонаблюдения и метеопрогнозы.

Управление картой: чтобы увеличить масштаб, щелкните зеленые кнопки с черным крестиком; чтобы уменьшить масштаб, щелкните зеленую кнопку с тире; для просмотра соседних карт щелкайте зеленые стрелки.


METAR-TAF: